Time;durP1;ratioP1;P1;durP2;ratioP2;P2;SDS_P1;SDS_P2;PMS_P1;PMS_P2;Temp;Humidity;BMP_temperature;BMP_pressure;BME280_temperature;BME280_humidity;BME280_pressure;Samples;Min_cycle;Max_cycle;Signal;HPM_P1;HPM_P2
2023/08/23 00:01:18;;;;;;;7.57;2.53;;;;;;;16.13;75.83;101249.31;5008081;28;20050;-45
2023/08/23 00:03:51;;;;;;;7.68;2.03;;;;;;;16.16;75.97;101237.41;5009749;28;20136;-45
2023/08/23 00:06:18;;;;;;;7.35;2.60;;;;;;;16.13;75.92;101232.56;5009984;28;20077;-44
2023/08/23 00:08:45;;;;;;;8.40;2.00;;;;;;;16.10;75.98;101238.06;4993465;28;20127;-44
2023/08/23 00:11:12;;;;;;;5.55;2.00;;;;;;;16.08;76.15;101230.06;5010967;28;20064;-47
2023/08/23 00:13:39;;;;;;;11.70;3.58;;;;;;;16.07;76.31;101239.63;5011297;28;20111;-47
2023/08/23 00:16:06;;;;;;;6.55;2.30;;;;;;;16.03;76.48;101238.75;5011902;28;20531;-53
2023/08/23 00:18:33;;;;;;;7.07;1.85;;;;;;;16.02;76.69;101237.13;5011766;28;20042;-46
2023/08/23 00:21:00;;;;;;;6.60;2.28;;;;;;;16.02;76.70;101239.91;5011453;28;20463;-45
2023/08/23 00:23:26;;;;;;;8.32;2.55;;;;;;;16.01;76.87;101241.13;5011457;28;20132;-45
2023/08/23 00:25:53;;;;;;;7.45;2.13;;;;;;;16.01;76.92;101232.75;5009682;28;20141;-44
2023/08/23 00:28:20;;;;;;;7.55;2.15;;;;;;;16.03;76.97;101238.75;4993391;28;20400;-46
2023/08/23 00:30:50;;;;;;;6.57;3.22;;;;;;;16.00;77.00;101239.50;5011446;28;20416;-44
2023/08/23 00:33:17;;;;;;;9.35;2.42;;;;;;;15.98;77.27;101244.66;5012028;28;20044;-45
2023/08/23 00:35:44;;;;;;;8.63;2.20;;;;;;;16.01;77.23;101227.16;4992967;28;20057;-46
2023/08/23 00:38:12;;;;;;;8.60;1.77;;;;;;;16.02;77.00;101225.19;5011554;28;20065;-45
2023/08/23 00:40:39;;;;;;;9.93;2.63;;;;;;;16.03;77.11;101219.22;5011171;28;20049;-46
2023/08/23 00:43:09;;;;;;;8.55;2.47;;;;;;;16.03;76.87;101227.59;5008550;28;20073;-46
2023/08/23 00:45:37;;;;;;;11.65;2.38;;;;;;;16.04;76.73;101234.78;5008431;28;20050;-50
2023/08/23 00:48:06;;;;;;;8.00;2.00;;;;;;;16.03;77.09;101241.56;5000777;28;20061;-45
2023/08/23 00:50:34;;;;;;;8.23;2.30;;;;;;;16.02;77.23;101231.53;5009130;28;20091;-45
2023/08/23 00:53:06;;;;;;;6.88;2.13;;;;;;;16.01;77.32;101227.16;4972813;28;20667;-44
2023/08/23 00:55:35;;;;;;;8.15;2.88;;;;;;;16.02;77.35;101230.75;5010706;28;20049;-49
2023/08/23 00:58:02;;;;;;;7.28;1.70;;;;;;;16.01;77.51;101224.38;4973734;28;20050;-45
2023/08/23 01:00:30;;;;;;;7.53;2.13;;;;;;;16.02;77.55;101231.53;5008807;28;20050;-44
2023/08/23 01:02:57;;;;;;;4.10;1.50;;;;;;;16.04;77.60;101228.41;5004957;28;20046;-46
2023/08/23 01:05:35;;;;;;;10.50;2.00;;;;;;;16.02;77.67;101231.53;5009136;28;20111;-44
2023/08/23 01:08:08;;;;;;;7.40;1.75;;;;;;;15.99;77.67;101226.69;4961561;28;20148;-47
2023/08/23 01:10:43;;;;;;;3.63;1.73;;;;;;;15.99;77.66;101225.91;5009444;28;20046;-50
2023/08/23 01:13:27;;;;;;;1.92;1.33;;;;;;;15.99;77.71;101223.91;4992716;28;20123;-46
2023/08/23 01:15:56;;;;;;;7.85;2.00;;;;;;;16.00;77.59;101225.53;5011185;28;20049;-45
2023/08/23 01:18:27;;;;;;;4.60;1.85;;;;;;;15.99;77.78;101217.53;5010505;28;20069;-44
2023/08/23 01:20:55;;;;;;;5.68;1.80;;;;;;;15.97;77.75;101217.06;5008589;28;20090;-46
2023/08/23 01:23:24;;;;;;;6.55;1.95;;;;;;;15.97;78.00;101217.06;4993490;28;20049;-47
2023/08/23 01:25:52;;;;;;;5.47;1.60;;;;;;;15.97;77.98;101217.88;5010955;28;20056;-52
2023/08/23 01:28:20;;;;;;;3.63;1.40;;;;;;;15.98;78.25;101218.69;4998380;28;20061;-47
2023/08/23 01:30:49;;;;;;;5.70;1.83;;;;;;;15.99;78.28;101220.31;5010592;28;20796;-48
2023/08/23 01:33:22;;;;;;;6.80;1.77;;;;;;;15.97;78.40;101223.47;5010923;28;20049;-47
2023/08/23 01:36:04;;;;;;;6.30;2.17;;;;;;;15.97;78.41;101219.88;5010667;28;20046;-45
2023/08/23 01:38:33;;;;;;;5.72;2.40;;;;;;;15.95;78.55;101220.25;5009251;28;20594;-46
2023/08/23 01:41:01;;;;;;;7.82;2.05;;;;;;;15.94;78.68;101218.63;5011301;28;20034;-45
2023/08/23 01:43:28;;;;;;;7.03;1.70;;;;;;;15.94;78.72;101221.41;5009785;28;20057;-45
2023/08/23 01:45:55;;;;;;;4.63;1.75;;;;;;;15.93;78.96;101205.84;5009910;28;20058;-45
2023/08/23 01:48:22;;;;;;;4.43;1.70;;;;;;;15.95;79.13;101208.25;5014392;28;20053;-44
2023/08/23 01:50:52;;;;;;;8.35;1.95;;;;;;;15.94;79.09;101212.25;5012386;28;20048;-44
2023/08/23 01:53:19;;;;;;;6.80;1.77;;;;;;;15.94;79.25;101215.81;4994634;28;20488;-45
2023/08/23 01:55:45;;;;;;;7.78;2.10;;;;;;;15.92;79.18;101220.97;5010636;28;20133;-44
2023/08/23 01:58:12;;;;;;;5.38;2.20;;;;;;;15.89;79.21;101218.09;5012400;28;20527;-47
2023/08/23 02:00:45;;;;;;;6.57;1.52;;;;;;;15.87;79.35;101224.06;5011219;28;20120;-45
2023/08/23 02:03:13;;;;;;;5.78;2.30;;;;;;;15.87;79.19;101212.91;5007214;28;20160;-45
2023/08/23 02:05:40;;;;;;;5.88;1.95;;;;;;;15.86;79.20;101211.28;5012394;28;20120;-47
2023/08/23 02:08:07;;;;;;;10.07;1.80;;;;;;;15.88;79.16;101219.31;5010787;28;20492;-53
2023/08/23 02:10:33;;;;;;;5.75;1.55;;;;;;;15.85;79.36;101229.22;5012140;28;20132;-45
2023/08/23 02:13:04;;;;;;;7.18;1.77;;;;;;;15.84;79.41;101227.59;5012034;28;20507;-47
2023/08/23 02:15:31;;;;;;;6.93;2.05;;;;;;;15.81;79.50;101219.97;5014595;28;20468;-46
2023/08/23 02:17:58;;;;;;;5.47;1.33;;;;;;;15.82;79.46;101210.41;5013535;28;20104;-45
2023/08/23 02:20:25;;;;;;;5.60;1.50;;;;;;;15.79;79.13;101205.56;5013567;28;20050;-45
2023/08/23 02:22:52;;;;;;;4.15;1.80;;;;;;;15.80;79.51;101207.19;5013605;28;20412;-45
2023/08/23 02:25:20;;;;;;;9.98;1.70;;;;;;;15.82;79.30;101211.22;5013506;28;20049;-45
2023/08/23 02:27:47;;;;;;;7.35;2.47;;;;;;;15.80;79.12;101207.19;5012517;28;20057;-45
2023/08/23 02:30:15;;;;;;;5.00;1.60;;;;;;;15.80;79.09;101207.19;5012709;28;20045;-46
2023/08/23 02:32:41;;;;;;;5.00;1.80;;;;;;;15.78;79.06;101192.78;5013815;28;20419;-46
2023/08/23 02:35:08;;;;;;;5.63;2.03;;;;;;;15.76;79.27;101200.72;5013229;28;20400;-45
2023/08/23 02:37:35;;;;;;;5.30;1.80;;;;;;;15.76;79.40;101195.13;5013146;28;20056;-45
2023/08/23 02:40:03;;;;;;;7.05;1.30;;;;;;;15.78;79.22;101206.75;5012549;28;20050;-46
2023/08/23 02:42:30;;;;;;;8.90;2.35;;;;;;;15.78;79.32;101204.75;5011585;28;20982;-46
2023/08/23 02:44:57;;;;;;;8.98;1.98;;;;;;;15.77;79.30;101210.72;5011355;28;20053;-44
2023/08/23 02:47:24;;;;;;;7.10;1.75;;;;;;;15.77;79.45;101207.94;5011127;28;20519;-45
2023/08/23 02:49:50;;;;;;;8.98;2.47;;;;;;;15.76;79.34;101207.13;5011184;28;20034;-45
2023/08/23 02:52:17;;;;;;;4.82;1.67;;;;;;;15.74;79.36;101203.09;5012359;28;20050;-45
2023/08/23 02:54:44;;;;;;;6.70;1.50;;;;;;;15.73;79.29;101223.78;4995146;28;20046;-45
2023/08/23 02:57:11;;;;;;;10.45;1.58;;;;;;;15.72;79.32;101208.22;5010065;28;20044;-49
2023/08/23 02:59:38;;;;;;;9.68;2.10;;;;;;;15.73;79.50;101207.03;5010993;28;20050;-47
2023/08/23 03:02:05;;;;;;;7.00;1.48;;;;;;;15.72;79.58;101205.44;5039936;22;20049;-46
2023/08/23 03:04:31;;;;;;;8.70;1.13;;;;;;;15.73;79.39;101207.03;5013056;28;20049;-46
2023/08/23 03:06:58;;;;;;;6.47;2.05;;;;;;;15.70;79.76;101203.00;5004420;28;20072;-46
2023/08/23 03:09:25;;;;;;;3.90;1.60;;;;;;;15.72;79.71;101205.44;5008686;28;20056;-46
2023/08/23 03:11:52;;;;;;;10.70;2.78;;;;;;;15.72;79.58;101205.44;5011170;28;20467;-47
2023/08/23 03:14:20;;;;;;;6.65;1.60;;;;;;;15.70;79.66;101202.22;5010713;28;20562;-46
2023/08/23 03:16:47;;;;;;;5.72;1.70;;;;;;;15.69;79.78;101195.00;5009889;28;20050;-46
2023/08/23 03:19:14;;;;;;;6.65;2.53;;;;;;;15.67;79.87;101194.56;5011249;28;20561;-46
2023/08/23 03:21:40;;;;;;;5.30;2.00;;;;;;;15.65;80.01;101189.34;5010290;28;20046;-48
2023/08/23 03:24:07;;;;;;;7.13;1.73;;;;;;;15.62;80.25;101194.88;5010922;28;20048;-46
2023/08/23 03:26:34;;;;;;;7.38;1.60;;;;;;;15.61;80.33;101193.25;5009966;28;20046;-47
2023/08/23 03:29:02;;;;;;;5.80;1.38;;;;;;;15.58;80.37;101200.38;5010942;28;20049;-46
2023/08/23 03:31:29;;;;;;;5.93;1.83;;;;;;;15.56;80.12;101196.34;5011096;28;20046;-51
2023/08/23 03:33:56;;;;;;;5.55;1.48;;;;;;;15.57;80.08;101203.53;5011878;28;20038;-49
2023/08/23 03:36:23;;;;;;;5.38;1.45;;;;;;;15.58;80.04;101199.56;5010899;28;20042;-46
2023/08/23 03:38:50;;;;;;;9.02;3.95;;;;;;;15.57;80.09;101197.94;5012524;28;20049;-46
2023/08/23 03:41:17;;;;;;;7.63;1.50;;;;;;;15.57;80.08;101192.34;5012352;28;20431;-45
2023/08/23 03:43:44;;;;;;;3.50;1.45;;;;;;;15.57;80.11;101187.59;5010552;28;20062;-45
2023/08/23 03:46:11;;;;;;;6.68;1.73;;;;;;;15.58;80.09;101178.06;5009614;28;20410;-46
2023/08/23 03:48:38;;;;;;;8.57;1.60;;;;;;;15.58;79.95;101185.59;5009777;28;20049;-46
2023/08/23 03:51:04;;;;;;;12.15;1.83;;;;;;;15.55;80.18;101186.34;5011337;28;20161;-46
2023/08/23 03:53:32;;;;;;;9.45;1.70;;;;;;;15.54;80.21;101181.97;5001873;28;20058;-46
2023/08/23 03:55:59;;;;;;;8.30;1.55;;;;;;;15.53;80.23;101180.31;5012519;28;20049;-45
2023/08/23 03:58:26;;;;;;;3.00;1.40;;;;;;;15.52;80.50;101187.06;5011575;28;20053;-46
2023/08/23 04:00:53;;;;;;;9.73;3.15;;;;;;;15.51;80.53;101177.91;5010431;28;20053;-46
2023/08/23 04:03:20;;;;;;;6.80;1.63;;;;;;;15.50;80.62;101181.06;5011367;28;20049;-48
2023/08/23 04:05:48;;;;;;;6.38;1.90;;;;;;;15.50;80.72;101176.28;5011561;28;20052;-47
2023/08/23 04:08:16;;;;;;;5.57;1.73;;;;;;;15.52;80.62;101173.13;5011549;28;20054;-46
2023/08/23 04:10:50;;;;;;;4.65;1.80;;;;;;;15.51;80.76;101171.53;5004228;28;20041;-46
2023/08/23 04:13:17;;;;;;;14.82;2.95;;;;;;;15.50;80.77;101159.56;5012249;28;20397;-45
2023/08/23 04:15:44;;;;;;;4.80;1.85;;;;;;;15.50;80.84;101164.31;5011409;28;20566;-46
2023/08/23 04:18:11;;;;;;;6.30;2.00;;;;;;;15.46;80.75;101167.03;5011337;28;20042;-46
2023/08/23 04:20:38;;;;;;;9.45;3.00;;;;;;;15.47;80.75;101163.06;5010432;28;20052;-47
2023/08/23 04:23:05;;;;;;;6.22;1.65;;;;;;;15.45;80.90;101161.78;5010041;28;20140;-46
2023/08/23 04:25:33;;;;;;;7.43;1.65;;;;;;;15.42;80.77;101157.75;5009880;28;20180;-50
2023/08/23 04:27:59;;;;;;;6.00;2.15;;;;;;;15.40;80.85;101159.31;5009909;28;20167;-46
2023/08/23 04:30:26;;;;;;;6.38;2.08;;;;;;;15.37;81.02;101158.06;5009367;28;20050;-46
2023/08/23 04:32:53;;;;;;;6.68;1.55;;;;;;;15.36;80.83;101155.63;5009136;28;20053;-46
2023/08/23 04:35:20;;;;;;;6.32;1.92;;;;;;;15.33;80.89;101154.38;5010420;28;20575;-45
2023/08/23 04:37:47;;;;;;;9.85;2.83;;;;;;;15.27;80.95;101145.47;5011226;28;20467;-46
2023/08/23 04:40:14;;;;;;;4.32;1.88;;;;;;;15.24;81.09;101149.03;5011463;28;20046;-46
2023/08/23 04:42:41;;;;;;;5.65;1.80;;;;;;;15.22;81.37;101151.38;5011323;28;20064;-48
2023/08/23 04:45:08;;;;;;;7.97;1.60;;;;;;;15.19;81.37;101152.13;5010508;28;20046;-46
2023/08/23 04:47:35;;;;;;;5.90;2.13;;;;;;;15.17;81.37;101148.88;5016106;28;20121;-46
2023/08/23 04:50:03;;;;;;;5.60;2.10;;;;;;;15.15;81.40;101150.41;5008411;28;20403;-46
2023/08/23 04:52:29;;;;;;;5.18;2.25;;;;;;;15.13;81.55;101150.78;5009427;28;20062;-46
2023/08/23 04:54:56;;;;;;;13.77;2.83;;;;;;;15.12;81.65;101154.72;5009713;28;20042;-46
2023/08/23 04:57:23;;;;;;;6.68;2.60;;;;;;;15.12;81.95;101143.59;5010257;28;20380;-46
2023/08/23 04:59:50;;;;;;;8.27;1.80;;;;;;;15.10;81.82;101147.91;5009216;28;20050;-46
2023/08/23 05:02:17;;;;;;;10.23;1.95;;;;;;;15.09;81.93;101152.69;5009967;28;20101;-46
2023/08/23 05:04:44;;;;;;;5.78;1.63;;;;;;;15.07;81.97;101154.22;5009656;28;20491;-47
2023/08/23 05:07:11;;;;;;;8.50;2.85;;;;;;;15.06;81.87;101150.63;5008210;28;20821;-46
2023/08/23 05:09:39;;;;;;;2.97;1.50;;;;;;;15.06;81.98;101145.03;5006881;28;20053;-47
2023/08/23 05:12:06;;;;;;;6.45;1.58;;;;;;;15.04;81.79;101147.38;5004402;28;20112;-46
2023/08/23 05:14:33;;;;;;;6.28;2.05;;;;;;;15.02;81.90;101154.50;5007619;28;20046;-48
2023/08/23 05:17:00;;;;;;;13.82;3.55;;;;;;;15.02;82.12;101154.50;5009607;28;20030;-46
2023/08/23 05:19:27;;;;;;;7.20;2.50;;;;;;;15.02;82.07;101166.47;5008630;28;20046;-46
2023/08/23 05:21:54;;;;;;;7.68;2.22;;;;;;;15.04;81.95;101172.50;5011369;28;20080;-46
2023/08/23 05:24:21;;;;;;;9.93;2.58;;;;;;;15.03;81.92;101165.31;5012706;28;20041;-46
2023/08/23 05:26:48;;;;;;;13.77;3.17;;;;;;;15.07;81.95;101168.97;5014027;28;20438;-47
2023/08/23 05:29:14;;;;;;;7.97;2.30;;;;;;;15.10;81.87;101171.03;5014541;28;20049;-45
2023/08/23 05:31:42;;;;;;;6.25;1.75;;;;;;;15.09;81.74;101169.41;5014457;28;20514;-46
2023/08/23 05:34:10;;;;;;;9.98;2.15;;;;;;;15.11;82.06;101175.44;5014065;28;20096;-46
2023/08/23 05:36:38;;;;;;;4.53;1.50;;;;;;;15.11;82.04;101169.88;5003092;28;20463;-46
2023/08/23 05:39:06;;;;;;;3.78;1.77;;;;;;;15.14;82.07;101163.53;5014835;28;20057;-46
2023/08/23 05:41:33;;;;;;;10.18;2.47;;;;;;;15.16;82.04;101160.41;5014036;28;20046;-46
2023/08/23 05:43:59;;;;;;;5.97;2.00;;;;;;;15.13;82.16;101163.91;5015180;28;20049;-48
2023/08/23 05:46:26;;;;;;;3.55;2.45;;;;;;;15.09;82.41;101158.25;5009464;28;20066;-47
2023/08/23 05:48:53;;;;;;;5.10;1.92;;;;;;;15.09;82.33;101165.84;5014174;28;20062;-46
2023/08/23 05:51:20;;;;;;;11.38;2.20;;;;;;;15.06;82.28;101164.56;5013668;28;20042;-46
2023/08/23 05:53:47;;;;;;;7.43;2.33;;;;;;;15.05;82.19;101160.16;5013999;28;20050;-46
2023/08/23 05:56:14;;;;;;;3.38;1.70;;;;;;;15.01;82.10;101158.50;5011897;28;20054;-46
2023/08/23 05:58:41;;;;;;;8.07;1.85;;;;;;;14.97;82.11;101152.00;5010155;28;20038;-46
2023/08/23 06:01:08;;;;;;;4.28;1.85;;;;;;;14.93;82.25;101140.75;5010787;28;20058;-46
2023/08/23 06:03:35;;;;;;;7.35;2.05;;;;;;;14.87;82.40;101139.47;5012443;28;20073;-49
2023/08/23 06:06:02;;;;;;;4.95;1.70;;;;;;;14.83;82.67;101144.13;5012059;28;20104;-46
2023/08/23 06:08:30;;;;;;;8.07;2.13;;;;;;;14.81;82.73;101140.91;5012404;28;20061;-48
2023/08/23 06:10:57;;;;;;;7.82;1.98;;;;;;;14.77;82.71;101139.22;5010557;28;20041;-46
2023/08/23 06:13:24;;;;;;;6.78;3.38;;;;;;;14.73;82.92;101141.91;5013126;28;20124;-48
2023/08/23 06:15:51;;;;;;;7.05;1.92;;;;;;;14.71;82.96;101138.69;5012312;28;20089;-47
2023/08/23 06:18:18;;;;;;;5.70;2.38;;;;;;;14.68;83.06;101139.41;5013054;28;20443;-46
2023/08/23 06:20:45;;;;;;;6.47;1.85;;;;;;;14.67;83.12;101146.16;5009787;28;20042;-46
2023/08/23 06:23:12;;;;;;;7.40;2.05;;;;;;;14.65;83.48;101145.72;5012579;28;20045;-45
2023/08/23 06:25:39;;;;;;;8.23;1.90;;;;;;;14.66;83.49;101147.34;5011435;28;20050;-46
2023/08/23 06:28:07;;;;;;;7.85;2.72;;;;;;;14.68;83.53;101147.78;5011856;28;20530;-46
2023/08/23 06:30:37;;;;;;;4.00;1.98;;;;;;;14.69;83.52;101141.03;5013834;28;20056;-47
2023/08/23 06:33:05;;;;;;;5.95;2.00;;;;;;;14.73;83.64;101141.09;5006535;28;20050;-45
2023/08/23 06:35:32;;;;;;;11.25;2.92;;;;;;;14.76;83.90;101135.63;5010552;28;20538;-46
2023/08/23 06:37:59;;;;;;;4.43;1.73;;;;;;;14.82;83.76;101144.50;5008811;28;20160;-45
2023/08/23 06:40:27;;;;;;;5.47;1.75;;;;;;;14.85;83.75;101150.16;5007106;28;20050;-46
2023/08/23 06:42:53;;;;;;;11.98;3.30;;;;;;;14.90;83.90;101144.31;4999789;28;20053;-46
2023/08/23 06:45:20;;;;;;;11.63;2.15;;;;;;;14.96;83.56;101151.19;5013467;28;20053;-46
2023/08/23 06:47:48;;;;;;;8.10;2.50;;;;;;;15.00;83.32;101146.53;5012831;28;20041;-45
2023/08/23 06:50:16;;;;;;;9.30;2.58;;;;;;;15.05;83.33;101156.56;5007298;28;20046;-46
2023/08/23 06:52:43;;;;;;;6.40;1.77;;;;;;;15.10;83.01;101153.50;5011629;28;20695;-46
2023/08/23 06:55:10;;;;;;;5.72;1.80;;;;;;;15.15;82.64;101153.19;5012966;28;20073;-46
2023/08/23 06:57:39;;;;;;;3.60;1.60;;;;;;;15.21;82.28;101160.91;5012883;28;20104;-48
2023/08/23 07:00:07;;;;;;;6.38;1.75;;;;;;;15.26;82.12;101157.03;5011852;28;20057;-46
2023/08/23 07:02:33;;;;;;;5.38;1.65;;;;;;;15.32;81.73;101157.53;5012897;28;20038;-46
2023/08/23 07:05:00;;;;;;;8.93;2.45;;;;;;;15.37;81.43;101154.44;5012618;28;20045;-46
2023/08/23 07:07:27;;;;;;;4.68;1.45;;;;;;;15.43;81.35;101158.56;5011665;28;20050;-46
2023/08/23 07:09:54;;;;;;;7.53;1.83;;;;;;;15.48;81.11;101150.75;5010370;28;20392;-46
2023/08/23 07:12:21;;;;;;;10.70;1.98;;;;;;;15.53;80.85;101155.22;5008838;28;20427;-49
2023/08/23 07:14:49;;;;;;;5.85;1.83;;;;;;;15.57;80.74;101159.69;5007182;28;20522;-46
2023/08/23 07:17:17;;;;;;;10.82;2.10;;;;;;;15.63;80.67;101162.97;5009351;28;20509;-45
2023/08/23 07:19:44;;;;;;;10.32;2.38;;;;;;;15.66;80.48;101156.66;5005385;28;20061;-46
2023/08/23 07:22:11;;;;;;;9.60;2.85;;;;;;;15.73;80.35;101151.22;5006653;28;20041;-47
2023/08/23 07:24:38;;;;;;;9.80;1.73;;;;;;;15.79;80.22;101149.72;5010496;28;20415;-47
2023/08/23 07:27:05;;;;;;;7.97;1.63;;;;;;;15.82;80.29;101147.03;5010897;28;20045;-46
2023/08/23 07:29:32;;;;;;;4.93;1.52;;;;;;;15.87;79.93;101145.91;5007313;28;20137;-46
2023/08/23 07:31:59;;;;;;;5.15;1.85;;;;;;;15.93;79.90;101143.59;5011527;28;20057;-46
2023/08/23 07:34:26;;;;;;;6.72;2.88;;;;;;;15.98;79.99;101148.88;5009095;28;20042;-47
2023/08/23 07:36:54;;;;;;;7.30;1.60;;;;;;;16.02;79.83;101153.34;5012820;28;20454;-47
2023/08/23 07:39:21;;;;;;;8.15;2.00;;;;;;;16.08;79.82;101149.06;5012689;28;20184;-49
2023/08/23 07:41:48;;;;;;;6.40;2.90;;;;;;;16.14;79.82;101133.63;5010131;28;20173;-46
2023/08/23 07:44:15;;;;;;;7.43;1.60;;;;;;;16.21;79.74;101144.91;5009592;28;20504;-48
2023/08/23 07:46:44;;;;;;;5.28;1.35;;;;;;;16.28;79.82;101145.00;5010438;28;20062;-46
2023/08/23 07:49:13;;;;;;;9.55;1.75;;;;;;;16.35;79.73;101145.16;5009737;28;20038;-46
2023/08/23 07:51:40;;;;;;;11.45;2.85;;;;;;;16.45;79.51;101138.91;5008443;28;20096;-46
2023/08/23 07:54:07;;;;;;;8.85;1.80;;;;;;;16.54;79.73;101129.50;5008277;28;20416;-46
2023/08/23 07:56:34;;;;;;;7.18;1.95;;;;;;;16.59;79.66;101138.38;5010115;28;20419;-46
2023/08/23 07:59:01;;;;;;;10.77;2.13;;;;;;;16.65;79.47;101136.88;5007555;28;20104;-46
2023/08/23 08:01:28;;;;;;;8.85;1.98;;;;;;;16.73;79.67;101126.59;5008497;28;20057;-46
2023/08/23 08:03:55;;;;;;;7.38;1.73;;;;;;;16.81;79.50;101126.28;5010086;28;20041;-47
2023/08/23 08:06:22;;;;;;;6.85;1.33;;;;;;;16.92;79.22;101129.25;5010168;28;20046;-48
2023/08/23 08:08:49;;;;;;;8.55;2.22;;;;;;;17.08;79.64;101126.28;5010562;28;20056;-46
2023/08/23 08:11:16;;;;;;;6.63;1.75;;;;;;;17.36;79.60;101126.63;5011743;28;20069;-49
2023/08/23 08:13:42;;;;;;;8.07;1.88;;;;;;;17.63;79.02;101137.34;5021544;28;20042;-47
2023/08/23 08:16:11;;;;;;;5.70;2.28;;;;;;;17.86;78.28;101130.78;5011410;28;20049;-48
2023/08/23 08:18:39;;;;;;;4.80;1.40;;;;;;;18.03;77.67;101128.16;5011905;28;20042;-47
2023/08/23 08:21:06;;;;;;;6.70;2.58;;;;;;;18.22;76.80;101129.91;5009569;28;20061;-46
2023/08/23 08:23:33;;;;;;;4.60;1.40;;;;;;;18.41;76.20;101126.88;5010280;28;20042;-48
2023/08/23 08:26:00;;;;;;;5.95;1.23;;;;;;;18.61;75.32;101130.25;5011097;28;20156;-47
2023/08/23 08:28:26;;;;;;;4.00;1.25;;;;;;;18.78;74.96;101124.75;5011782;28;20034;-46
2023/08/23 08:30:54;;;;;;;2.75;1.17;;;;;;;18.97;74.26;101137.69;5011370;28;20042;-47
2023/08/23 08:33:21;;;;;;;4.00;1.30;;;;;;;19.18;73.73;101139.78;5011418;28;20049;-46
2023/08/23 08:35:47;;;;;;;6.90;1.90;;;;;;;19.32;72.78;101139.88;5011208;28;20448;-45
2023/08/23 08:38:14;;;;;;;5.78;1.30;;;;;;;19.39;71.77;101132.31;5011295;28;20049;-47
2023/08/23 08:40:42;;;;;;;3.22;1.73;;;;;;;19.41;71.12;101143.94;5010871;28;20077;-47
2023/08/23 08:43:10;;;;;;;3.72;2.03;;;;;;;19.38;70.42;101144.72;5011463;28;20812;-45
2023/08/23 08:45:37;;;;;;;5.57;1.13;;;;;;;19.30;69.42;101137.44;4993776;28;20049;-46
2023/08/23 08:48:05;;;;;;;3.78;1.15;;;;;;;19.24;69.46;101138.22;5011001;28;20128;-48
2023/08/23 08:50:33;;;;;;;7.28;1.83;;;;;;;19.20;69.13;101141.00;5011086;28;20107;-46
2023/08/23 08:53:03;;;;;;;12.40;2.08;;;;;;;19.18;69.00;101137.81;5011322;28;20046;-47
2023/08/23 08:55:30;;;;;;;6.55;1.48;;;;;;;19.17;68.57;101129.75;5010701;28;20052;-48
2023/08/23 08:57:59;;;;;;;3.58;1.23;;;;;;;19.25;68.06;101131.41;5015142;28;20140;-46
2023/08/23 09:00:26;;;;;;;3.45;1.17;;;;;;;19.35;67.47;101120.22;5014629;28;20045;-46
2023/08/23 09:02:57;;;;;;;4.97;1.60;;;;;;;19.47;67.23;101116.28;5015154;28;20500;-46
2023/08/23 09:05:25;;;;;;;3.92;1.08;;;;;;;19.57;66.80;101121.13;5014927;28;20491;-46
2023/08/23 09:07:56;;;;;;;4.43;1.60;;;;;;;19.71;66.16;101115.53;5014989;28;20191;-49
2023/08/23 09:10:24;;;;;;;4.00;0.98;;;;;;;19.85;65.52;101118.38;5014906;28;20049;-46
2023/08/23 09:12:52;;;;;;;3.33;1.05;;;;;;;19.98;65.30;101116.78;5014771;28;20104;-46
2023/08/23 09:15:23;;;;;;;5.82;1.08;;;;;;;20.14;64.86;101116.41;5014948;28;20130;-46
2023/08/23 09:17:54;;;;;;;3.00;0.82;;;;;;;20.47;64.62;101106.75;5014745;28;20049;-46
2023/08/23 09:20:22;;;;;;;6.17;2.33;;;;;;;20.93;63.92;101110.28;5014951;28;20054;-46
2023/08/23 09:22:53;;;;;;;4.65;0.93;;;;;;;21.98;63.11;101105.34;5014400;28;20038;-47
2023/08/23 09:25:23;;;;;;;5.20;1.37;;;;;;;23.21;61.39;101111.81;5013411;28;20053;-47
2023/08/23 09:27:53;;;;;;;3.58;0.88;;;;;;;24.20;59.36;101101.94;5014423;28;20038;-48
2023/08/23 09:30:21;;;;;;;2.28;0.85;;;;;;;25.02;57.26;101113.38;5013679;28;20128;-47
2023/08/23 09:32:49;;;;;;;1.45;0.88;;;;;;;25.69;53.98;101114.81;5014466;28;20443;-47
2023/08/23 09:35:17;;;;;;;2.78;0.80;;;;;;;26.16;51.76;101117.41;5014334;28;20061;-50
2023/08/23 09:37:48;;;;;;;1.35;0.80;;;;;;;26.59;50.35;101118.69;5014660;28;20050;-48
2023/08/23 09:40:20;;;;;;;4.03;0.82;;;;;;;26.93;49.79;101121.03;5014645;28;20112;-46
2023/08/23 09:42:48;;;;;;;;;;;;;;;26.81;51.20;101116.13;5014890;28;20097;-47
2023/08/23 09:45:22;;;;;;;4.80;0.70;;;;;;;26.78;50.28;101104.84;5014293;28;20303;-46
2023/08/23 09:47:59;;;;;;;3.70;0.73;;;;;;;26.43;49.11;101109.38;5002317;28;20054;-47
2023/08/23 09:50:28;;;;;;;4.22;1.17;;;;;;;26.31;47.81;101093.09;5014295;28;20056;-50
2023/08/23 09:53:04;;;;;;;1.80;0.55;;;;;;;26.80;47.86;101099.50;5014384;28;20479;-44
2023/08/23 09:55:34;;;;;;;2.30;0.73;;;;;;;27.20;46.32;101095.09;5018100;28;20100;-44
2023/08/23 09:58:02;;;;;;;1.73;0.70;;;;;;;27.31;45.28;101083.41;5013951;28;20140;-45
2023/08/23 10:00:30;;;;;;;4.85;1.25;;;;;;;27.53;44.24;101084.41;5013969;28;20555;-47
2023/08/23 10:02:57;;;;;;;3.33;1.23;;;;;;;27.74;44.07;101083.72;5013455;28;20068;-46
2023/08/23 10:05:25;;;;;;;2.00;0.60;;;;;;;28.00;42.65;101079.63;5013936;28;20041;-49
2023/08/23 10:07:55;;;;;;;2.30;0.90;;;;;;;28.16;42.32;101075.84;5016034;28;20488;-47
2023/08/23 10:10:24;;;;;;;5.38;1.20;;;;;;;28.33;41.91;101069.56;5014188;28;20046;-44
2023/08/23 10:12:55;;;;;;;3.10;0.95;;;;;;;28.50;41.49;101077.94;5013905;28;20053;-45
2023/08/23 10:15:42;;;;;;;2.15;0.73;;;;;;;28.46;41.43;101089.47;5013638;28;20519;-45
2023/08/23 10:18:13;;;;;;;4.82;0.88;;;;;;;28.68;40.56;101078.94;5013447;28;20403;-44
2023/08/23 10:20:41;;;;;;;2.97;1.15;;;;;;;28.86;40.51;101079.06;5013566;28;20038;-47
2023/08/23 10:23:16;;;;;;;1.58;0.80;;;;;;;28.88;40.55;101070.06;5013378;28;20107;-44
2023/08/23 10:25:45;;;;;;;3.30;0.68;;;;;;;28.91;39.78;101074.84;5013690;28;20119;-45
2023/08/23 10:28:15;;;;;;;2.17;0.80;;;;;;;28.92;39.08;101060.13;5013764;28;20561;-46
2023/08/23 10:30:43;;;;;;;5.13;1.20;;;;;;;28.91;38.24;101075.63;5013422;28;20477;-45
2023/08/23 10:33:12;;;;;;;3.63;0.93;;;;;;;28.74;38.40;101062.84;5012198;28;20042;-44
2023/08/23 10:35:41;;;;;;;3.40;0.85;;;;;;;28.14;39.27;101062.09;5013078;28;20053;-44
2023/08/23 10:38:09;;;;;;;3.58;0.90;;;;;;;27.61;40.12;101055.28;5013196;28;20056;-47
2023/08/23 10:40:39;;;;;;;3.10;1.02;;;;;;;27.21;42.23;101051.22;5012791;28;20050;-44
2023/08/23 10:43:11;;;;;;;3.85;1.08;;;;;;;27.26;42.44;101049.84;5016376;28;20112;-45
2023/08/23 10:46:08;;;;;;;1.25;0.55;;;;;;;27.31;42.50;101043.59;5013994;28;20042;-44
2023/08/23 10:48:35;;;;;;;2.22;0.85;;;;;;;27.34;42.15;101045.53;5013013;28;20049;-45
2023/08/23 10:51:02;;;;;;;2.45;0.70;;;;;;;27.11;42.79;101040.97;5013120;28;20133;-44
2023/08/23 10:53:29;;;;;;;3.53;0.90;;;;;;;26.60;43.92;101043.63;5012504;28;20058;-44
2023/08/23 10:56:00;;;;;;;4.20;1.30;;;;;;;25.90;45.49;101051.91;5013187;28;20042;-44
2023/08/23 10:58:27;;;;;;;4.28;1.10;;;;;;;25.23;47.35;101050.59;5012931;28;20060;-44
2023/08/23 11:00:55;;;;;;;4.93;1.10;;;;;;;24.63;48.22;101042.53;5012779;28;20069;-43
2023/08/23 11:03:22;;;;;;;6.50;1.50;;;;;;;24.17;49.43;101043.41;5012404;28;20068;-43
2023/08/23 11:05:49;;;;;;;19.13;3.25;;;;;;;23.77;50.49;101033.13;5012733;28;20046;-45
2023/08/23 11:08:16;;;;;;;1.77;0.90;;;;;;;23.36;51.00;101036.94;5012922;28;20042;-44
2023/08/23 11:10:43;;;;;;;2.67;0.93;;;;;;;23.02;52.13;101036.19;5012573;28;20065;-46
2023/08/23 11:13:11;;;;;;;3.20;1.60;;;;;;;22.71;53.15;101032.56;5012457;28;20066;-45
2023/08/23 11:15:40;;;;;;;6.35;1.77;;;;;;;22.43;54.17;101025.16;5012436;28;20046;-46
2023/08/23 11:18:07;;;;;;;2.90;1.10;;;;;;;22.23;55.31;101021.34;5013029;28;20088;-45
2023/08/23 11:20:34;;;;;;;5.00;1.10;;;;;;;22.00;55.64;101034.47;5012203;28;20056;-47
2023/08/23 11:23:01;;;;;;;5.70;1.08;;;;;;;21.75;56.22;101029.00;5012327;28;20149;-45
2023/08/23 11:25:31;;;;;;;5.82;1.33;;;;;;;21.55;56.92;101033.59;5012551;28;20041;-45
2023/08/23 11:27:58;;;;;;;3.67;1.30;;;;;;;21.33;58.01;101023.66;5012130;28;20060;-47